sensor_id;sensor_type;location;lat;lon;timestamp;P1;P2;P0
76784;PMS7003;66893;44.316;0.092;2023-03-08T00:01:32;14.25;13.50;11.00
76784;PMS7003;66893;44.316;0.092;2023-03-08T00:03:57;18.00;13.75;11.25
76784;PMS7003;66893;44.316;0.092;2023-03-08T00:06:23;18.50;14.25;10.00
76784;PMS7003;66893;44.316;0.092;2023-03-08T00:08:53;14.50;14.00;11.00
76784;PMS7003;66893;44.316;0.092;2023-03-08T00:11:19;16.50;14.25;10.00
76784;PMS7003;66893;44.316;0.092;2023-03-08T00:13:44;11.75;11.50;8.50
76784;PMS7003;66893;44.316;0.092;2023-03-08T00:16:10;17.50;15.25;10.75
76784;PMS7003;66893;44.316;0.092;2023-03-08T00:18:37;16.00;16.00;11.75
76784;PMS7003;66893;44.316;0.092;2023-03-08T00:21:07;18.25;17.50;11.00
76784;PMS7003;66893;44.316;0.092;2023-03-08T00:23:38;19.75;14.75;12.00
76784;PMS7003;66893;44.316;0.092;2023-03-08T00:26:04;15.25;14.00;12.00
76784;PMS7003;66893;44.316;0.092;2023-03-08T00:28:30;18.00;15.00;11.50
76784;PMS7003;66893;44.316;0.092;2023-03-08T00:30:59;18.00;14.50;11.00
76784;PMS7003;66893;44.316;0.092;2023-03-08T00:33:30;16.50;14.25;11.00
76784;PMS7003;66893;44.316;0.092;2023-03-08T00:38:35;20.00;14.00;10.75
76784;PMS7003;66893;44.316;0.092;2023-03-08T00:41:01;16.00;16.00;11.00
76784;PMS7003;66893;44.316;0.092;2023-03-08T00:43:27;12.25;11.25;8.50
76784;PMS7003;66893;44.316;0.092;2023-03-08T00:45:53;12.75;12.75;9.75
76784;PMS7003;66893;44.316;0.092;2023-03-08T00:48:19;16.75;13.00;9.50
76784;PMS7003;66893;44.316;0.092;2023-03-08T00:50:45;12.50;12.25;9.00
76784;PMS7003;66893;44.316;0.092;2023-03-08T00:53:11;11.75;11.75;9.00
76784;PMS7003;66893;44.316;0.092;2023-03-08T00:55:36;14.00;11.50;9.00
76784;PMS7003;66893;44.316;0.092;2023-03-08T00:58:02;13.25;12.25;9.50
76784;PMS7003;66893;44.316;0.092;2023-03-08T01:00:28;18.25;13.00;10.25
76784;PMS7003;66893;44.316;0.092;2023-03-08T01:02:54;14.75;13.25;9.25
76784;PMS7003;66893;44.316;0.092;2023-03-08T01:05:20;15.00;12.75;8.25
76784;PMS7003;66893;44.316;0.092;2023-03-08T01:07:46;13.00;13.00;10.00
76784;PMS7003;66893;44.316;0.092;2023-03-08T01:10:11;14.75;11.50;9.00
76784;PMS7003;66893;44.316;0.092;2023-03-08T01:12:37;13.00;11.75;9.00
76784;PMS7003;66893;44.316;0.092;2023-03-08T01:15:03;13.25;12.50;9.00
76784;PMS7003;66893;44.316;0.092;2023-03-08T01:17:29;15.25;12.50;9.75
76784;PMS7003;66893;44.316;0.092;2023-03-08T01:19:55;15.00;12.50;9.00
76784;PMS7003;66893;44.316;0.092;2023-03-08T01:22:21;11.00;10.75;8.00
76784;PMS7003;66893;44.316;0.092;2023-03-08T01:24:47;11.00;10.75;8.25
76784;PMS7003;66893;44.316;0.092;2023-03-08T01:27:13;8.25;7.50;7.00
76784;PMS7003;66893;44.316;0.092;2023-03-08T01:29:40;12.50;11.00;9.00
76784;PMS7003;66893;44.316;0.092;2023-03-08T01:32:05;9.75;9.00;6.75
76784;PMS7003;66893;44.316;0.092;2023-03-08T01:34:31;12.50;10.50;6.50
76784;PMS7003;66893;44.316;0.092;2023-03-08T01:36:57;15.00;12.75;8.25
76784;PMS7003;66893;44.316;0.092;2023-03-08T01:39:22;10.75;10.75;8.25
76784;PMS7003;66893;44.316;0.092;2023-03-08T01:41:48;11.75;11.00;9.00
76784;PMS7003;66893;44.316;0.092;2023-03-08T01:44:17;13.00;12.00;8.25
76784;PMS7003;66893;44.316;0.092;2023-03-08T01:46:44;10.25;9.25;6.50
76784;PMS7003;66893;44.316;0.092;2023-03-08T01:49:12;12.50;11.25;8.00
76784;PMS7003;66893;44.316;0.092;2023-03-08T01:52:04;8.50;7.50;6.00
76784;PMS7003;66893;44.316;0.092;2023-03-08T01:54:48;10.75;10.00;8.00
76784;PMS7003;66893;44.316;0.092;2023-03-08T01:57:19;8.00;8.00;6.00
76784;PMS7003;66893;44.316;0.092;2023-03-08T02:00:04;9.75;9.25;7.00
76784;PMS7003;66893;44.316;0.092;2023-03-08T02:02:42;12.00;9.50;7.25
76784;PMS7003;66893;44.316;0.092;2023-03-08T02:05:12;11.00;9.00;6.75
76784;PMS7003;66893;44.316;0.092;2023-03-08T02:07:38;12.50;8.00;6.75
76784;PMS7003;66893;44.316;0.092;2023-03-08T02:10:04;13.50;10.50;8.00
76784;PMS7003;66893;44.316;0.092;2023-03-08T02:12:30;11.00;10.25;7.75
76784;PMS7003;66893;44.316;0.092;2023-03-08T02:14:56;12.25;9.50;6.75
76784;PMS7003;66893;44.316;0.092;2023-03-08T02:17:22;9.50;9.00;7.25
76784;PMS7003;66893;44.316;0.092;2023-03-08T02:20:02;8.00;8.00;6.25
76784;PMS7003;66893;44.316;0.092;2023-03-08T02:22:42;8.50;8.50;6.50
76784;PMS7003;66893;44.316;0.092;2023-03-08T02:25:13;14.00;10.25;7.00
76784;PMS7003;66893;44.316;0.092;2023-03-08T02:27:43;11.75;10.75;8.00
76784;PMS7003;66893;44.316;0.092;2023-03-08T02:30:10;10.50;9.00;8.00
76784;PMS7003;66893;44.316;0.092;2023-03-08T02:32:37;8.00;8.00;6.00
76784;PMS7003;66893;44.316;0.092;2023-03-08T02:35:03;8.75;7.75;5.75
76784;PMS7003;66893;44.316;0.092;2023-03-08T02:37:30;10.25;9.00;6.50
76784;PMS7003;66893;44.316;0.092;2023-03-08T02:39:56;8.25;8.00;6.00
76784;PMS7003;66893;44.316;0.092;2023-03-08T02:42:22;10.75;8.75;6.00
76784;PMS7003;66893;44.316;0.092;2023-03-08T02:44:48;9.25;8.00;6.25
76784;PMS7003;66893;44.316;0.092;2023-03-08T02:47:13;9.25;9.25;7.25
76784;PMS7003;66893;44.316;0.092;2023-03-08T02:49:38;7.25;7.25;5.25
76784;PMS7003;66893;44.316;0.092;2023-03-08T02:52:04;8.75;8.50;6.50
76784;PMS7003;66893;44.316;0.092;2023-03-08T02:54:29;10.00;10.00;6.75
76784;PMS7003;66893;44.316;0.092;2023-03-08T02:56:55;9.75;9.75;7.75
76784;PMS7003;66893;44.316;0.092;2023-03-08T02:59:20;9.00;8.00;6.25
76784;PMS7003;66893;44.316;0.092;2023-03-08T03:01:46;11.00;10.00;7.00
76784;PMS7003;66893;44.316;0.092;2023-03-08T03:04:11;10.75;9.50;8.00
76784;PMS7003;66893;44.316;0.092;2023-03-08T03:06:37;8.25;8.00;5.75
76784;PMS7003;66893;44.316;0.092;2023-03-08T03:09:06;11.50;10.25;7.00
76784;PMS7003;66893;44.316;0.092;2023-03-08T03:11:32;9.50;6.50;5.00
76784;PMS7003;66893;44.316;0.092;2023-03-08T03:13:58;9.25;9.25;6.00
76784;PMS7003;66893;44.316;0.092;2023-03-08T03:16:24;12.75;9.75;6.50
76784;PMS7003;66893;44.316;0.092;2023-03-08T03:18:52;9.75;7.75;5.75
76784;PMS7003;66893;44.316;0.092;2023-03-08T03:21:18;7.75;4.00;4.00
76784;PMS7003;66893;44.316;0.092;2023-03-08T03:23:44;9.50;7.50;6.00
76784;PMS7003;66893;44.316;0.092;2023-03-08T03:26:13;9.00;8.75;7.00
76784;PMS7003;66893;44.316;0.092;2023-03-08T03:28:41;9.25;9.00;7.00
76784;PMS7003;66893;44.316;0.092;2023-03-08T03:31:07;7.00;7.00;6.00
76784;PMS7003;66893;44.316;0.092;2023-03-08T03:33:38;7.25;7.25;5.25
76784;PMS7003;66893;44.316;0.092;2023-03-08T03:36:04;7.50;6.50;5.25
76784;PMS7003;66893;44.316;0.092;2023-03-08T03:38:31;10.50;8.00;7.00
76784;PMS7003;66893;44.316;0.092;2023-03-08T03:41:03;9.25;9.00;7.75
76784;PMS7003;66893;44.316;0.092;2023-03-08T03:43:31;9.75;8.00;6.00
76784;PMS7003;66893;44.316;0.092;2023-03-08T03:45:57;8.50;8.00;6.00
76784;PMS7003;66893;44.316;0.092;2023-03-08T03:48:24;5.75;5.75;4.50
76784;PMS7003;66893;44.316;0.092;2023-03-08T03:50:56;7.00;7.00;5.75
76784;PMS7003;66893;44.316;0.092;2023-03-08T03:53:27;5.25;5.25;3.50
76784;PMS7003;66893;44.316;0.092;2023-03-08T03:55:53;8.00;8.00;6.00
76784;PMS7003;66893;44.316;0.092;2023-03-08T03:58:19;8.00;8.00;5.75
76784;PMS7003;66893;44.316;0.092;2023-03-08T04:00:45;7.50;7.50;6.25
76784;PMS7003;66893;44.316;0.092;2023-03-08T04:03:11;8.50;6.75;6.00
76784;PMS7003;66893;44.316;0.092;2023-03-08T04:05:37;8.00;7.25;6.00
76784;PMS7003;66893;44.316;0.092;2023-03-08T04:08:04;7.25;7.25;5.50
76784;PMS7003;66893;44.316;0.092;2023-03-08T04:10:31;8.25;7.00;6.00
76784;PMS7003;66893;44.316;0.092;2023-03-08T04:12:57;6.50;6.50;5.00
76784;PMS7003;66893;44.316;0.092;2023-03-08T04:15:22;5.50;5.00;4.25
76784;PMS7003;66893;44.316;0.092;2023-03-08T04:17:49;5.25;5.25;5.00
76784;PMS7003;66893;44.316;0.092;2023-03-08T04:20:16;5.25;5.25;4.00
76784;PMS7003;66893;44.316;0.092;2023-03-08T04:22:41;7.00;7.00;5.00
76784;PMS7003;66893;44.316;0.092;2023-03-08T04:25:07;7.75;6.00;5.00
76784;PMS7003;66893;44.316;0.092;2023-03-08T04:27:32;7.00;7.00;5.00
76784;PMS7003;66893;44.316;0.092;2023-03-08T04:29:58;7.50;6.25;5.50
76784;PMS7003;66893;44.316;0.092;2023-03-08T04:32:23;6.00;6.00;5.00
76784;PMS7003;66893;44.316;0.092;2023-03-08T04:34:49;6.00;5.00;4.00
76784;PMS7003;66893;44.316;0.092;2023-03-08T04:37:14;6.00;5.00;4.75
76784;PMS7003;66893;44.316;0.092;2023-03-08T04:39:40;7.00;6.75;5.00
76784;PMS7003;66893;44.316;0.092;2023-03-08T04:42:05;6.00;6.00;5.00
76784;PMS7003;66893;44.316;0.092;2023-03-08T04:44:31;7.00;7.00;5.00
76784;PMS7003;66893;44.316;0.092;2023-03-08T04:46:56;6.00;4.75;4.00
76784;PMS7003;66893;44.316;0.092;2023-03-08T04:49:22;5.25;5.25;4.25
76784;PMS7003;66893;44.316;0.092;2023-03-08T04:51:48;8.00;6.25;5.25
76784;PMS7003;66893;44.316;0.092;2023-03-08T04:54:13;7.00;5.75;4.75
76784;PMS7003;66893;44.316;0.092;2023-03-08T04:56:39;9.00;8.50;6.50
76784;PMS7003;66893;44.316;0.092;2023-03-08T04:59:05;8.00;7.00;5.00
76784;PMS7003;66893;44.316;0.092;2023-03-08T05:01:30;8.75;6.00;5.00
76784;PMS7003;66893;44.316;0.092;2023-03-08T05:03:56;7.50;6.50;4.00
76784;PMS7003;66893;44.316;0.092;2023-03-08T05:06:22;8.00;7.50;5.75
76784;PMS7003;66893;44.316;0.092;2023-03-08T05:08:48;6.25;6.00;5.00
76784;PMS7003;66893;44.316;0.092;2023-03-08T05:11:18;6.75;6.75;5.75
76784;PMS7003;66893;44.316;0.092;2023-03-08T05:13:46;6.75;5.75;4.75
76784;PMS7003;66893;44.316;0.092;2023-03-08T05:16:12;8.25;7.50;5.00
76784;PMS7003;66893;44.316;0.092;2023-03-08T05:18:37;6.00;5.00;4.00
76784;PMS7003;66893;44.316;0.092;2023-03-08T05:21:05;5.25;5.25;4.50
76784;PMS7003;66893;44.316;0.092;2023-03-08T05:23:31;4.25;4.00;3.50
76784;PMS7003;66893;44.316;0.092;2023-03-08T05:25:59;6.00;6.00;4.25
76784;PMS7003;66893;44.316;0.092;2023-03-08T05:28:26;6.25;6.25;4.50
76784;PMS7003;66893;44.316;0.092;2023-03-08T05:31:03;8.50;7.00;4.25
76784;PMS7003;66893;44.316;0.092;2023-03-08T05:33:31;5.00;4.50;3.75
76784;PMS7003;66893;44.316;0.092;2023-03-08T05:35:57;5.50;5.50;5.00
76784;PMS7003;66893;44.316;0.092;2023-03-08T05:38:23;6.25;5.75;5.00
76784;PMS7003;66893;44.316;0.092;2023-03-08T05:40:49;4.75;4.75;4.25
76784;PMS7003;66893;44.316;0.092;2023-03-08T05:43:15;3.75;3.75;2.75
76784;PMS7003;66893;44.316;0.092;2023-03-08T05:45:41;6.50;6.00;4.50
76784;PMS7003;66893;44.316;0.092;2023-03-08T05:48:07;5.00;5.00;4.00
76784;PMS7003;66893;44.316;0.092;2023-03-08T05:50:33;9.25;7.25;5.75
76784;PMS7003;66893;44.316;0.092;2023-03-08T05:52:58;11.25;8.00;5.50
76784;PMS7003;66893;44.316;0.092;2023-03-08T05:55:24;8.50;6.25;5.00
76784;PMS7003;66893;44.316;0.092;2023-03-08T05:57:49;8.75;7.75;6.00
76784;PMS7003;66893;44.316;0.092;2023-03-08T06:00:15;11.00;9.00;6.00
76784;PMS7003;66893;44.316;0.092;2023-03-08T06:02:41;11.50;9.25;7.25
76784;PMS7003;66893;44.316;0.092;2023-03-08T06:05:07;12.75;9.75;7.00
76784;PMS7003;66893;44.316;0.092;2023-03-08T06:07:33;8.50;7.75;6.00
76784;PMS7003;66893;44.316;0.092;2023-03-08T06:09:58;8.00;8.00;5.75
76784;PMS7003;66893;44.316;0.092;2023-03-08T06:12:24;8.75;8.50;6.00
76784;PMS7003;66893;44.316;0.092;2023-03-08T06:14:50;7.50;7.50;5.75
76784;PMS7003;66893;44.316;0.092;2023-03-08T06:17:15;10.75;8.50;6.00
76784;PMS7003;66893;44.316;0.092;2023-03-08T06:19:41;11.50;6.00;5.50
76784;PMS7003;66893;44.316;0.092;2023-03-08T06:22:06;9.50;6.50;5.00
76784;PMS7003;66893;44.316;0.092;2023-03-08T06:24:31;7.25;7.25;6.00
76784;PMS7003;66893;44.316;0.092;2023-03-08T06:26:57;10.00;7.25;6.75
76784;PMS7003;66893;44.316;0.092;2023-03-08T06:29:24;8.25;8.25;7.00
76784;PMS7003;66893;44.316;0.092;2023-03-08T06:31:49;8.00;8.00;5.75
76784;PMS7003;66893;44.316;0.092;2023-03-08T06:34:15;9.50;6.00;5.00
76784;PMS7003;66893;44.316;0.092;2023-03-08T06:36:41;6.50;6.25;4.75
76784;PMS7003;66893;44.316;0.092;2023-03-08T06:39:07;9.00;9.00;7.00
76784;PMS7003;66893;44.316;0.092;2023-03-08T06:41:34;5.75;5.75;5.00
76784;PMS7003;66893;44.316;0.092;2023-03-08T06:43:59;6.50;6.00;5.00
76784;PMS7003;66893;44.316;0.092;2023-03-08T06:46:25;7.25;7.25;6.00
76784;PMS7003;66893;44.316;0.092;2023-03-08T06:48:50;16.00;8.75;6.00
76784;PMS7003;66893;44.316;0.092;2023-03-08T06:51:17;8.50;7.00;5.50
76784;PMS7003;66893;44.316;0.092;2023-03-08T06:53:43;8.00;8.00;6.50
76784;PMS7003;66893;44.316;0.092;2023-03-08T06:56:10;7.50;7.25;6.00
76784;PMS7003;66893;44.316;0.092;2023-03-08T06:58:37;5.25;4.50;3.50
76784;PMS7003;66893;44.316;0.092;2023-03-08T07:01:03;8.00;7.00;5.00
76784;PMS7003;66893;44.316;0.092;2023-03-08T07:03:29;5.75;3.25;3.00
76784;PMS7003;66893;44.316;0.092;2023-03-08T07:05:58;8.50;7.00;6.00
76784;PMS7003;66893;44.316;0.092;2023-03-08T07:08:27;9.00;6.75;5.50
76784;PMS7003;66893;44.316;0.092;2023-03-08T07:10:53;8.25;7.50;4.50
76784;PMS7003;66893;44.316;0.092;2023-03-08T07:13:18;7.00;7.00;5.50
76784;PMS7003;66893;44.316;0.092;2023-03-08T07:15:46;9.75;8.25;6.00
76784;PMS7003;66893;44.316;0.092;2023-03-08T07:18:11;6.50;6.50;5.00
76784;PMS7003;66893;44.316;0.092;2023-03-08T07:20:36;9.50;8.00;6.00
76784;PMS7003;66893;44.316;0.092;2023-03-08T07:23:02;8.50;8.00;6.00
76784;PMS7003;66893;44.316;0.092;2023-03-08T07:25:28;9.00;7.50;6.00
76784;PMS7003;66893;44.316;0.092;2023-03-08T07:27:53;11.25;11.00;7.00
76784;PMS7003;66893;44.316;0.092;2023-03-08T07:30:19;12.25;11.25;8.25
76784;PMS7003;66893;44.316;0.092;2023-03-08T07:32:44;13.00;11.75;8.50
76784;PMS7003;66893;44.316;0.092;2023-03-08T07:35:11;9.50;8.25;6.50
76784;PMS7003;66893;44.316;0.092;2023-03-08T07:37:39;8.50;8.50;7.25
76784;PMS7003;66893;44.316;0.092;2023-03-08T07:40:05;10.75;10.50;8.25
76784;PMS7003;66893;44.316;0.092;2023-03-08T07:42:32;11.25;9.75;8.00
76784;PMS7003;66893;44.316;0.092;2023-03-08T07:44:58;12.25;11.25;8.50
76784;PMS7003;66893;44.316;0.092;2023-03-08T07:47:23;9.75;8.00;7.00
76784;PMS7003;66893;44.316;0.092;2023-03-08T07:49:49;9.00;9.00;6.50
76784;PMS7003;66893;44.316;0.092;2023-03-08T07:52:14;23.25;18.75;13.00
76784;PMS7003;66893;44.316;0.092;2023-03-08T07:54:40;29.75;25.25;17.75
76784;PMS7003;66893;44.316;0.092;2023-03-08T07:57:05;29.50;24.50;16.50
76784;PMS7003;66893;44.316;0.092;2023-03-08T07:59:31;14.75;13.75;10.50
76784;PMS7003;66893;44.316;0.092;2023-03-08T08:01:56;26.00;21.75;16.50
76784;PMS7003;66893;44.316;0.092;2023-03-08T08:04:22;17.00;16.50;12.25
76784;PMS7003;66893;44.316;0.092;2023-03-08T08:06:48;16.00;14.25;11.25
76784;PMS7003;66893;44.316;0.092;2023-03-08T08:09:13;15.50;15.25;11.50
76784;PMS7003;66893;44.316;0.092;2023-03-08T08:11:39;16.00;13.25;11.00
76784;PMS7003;66893;44.316;0.092;2023-03-08T08:14:05;15.25;11.75;10.00
76784;PMS7003;66893;44.316;0.092;2023-03-08T08:16:32;15.00;13.50;11.00
76784;PMS7003;66893;44.316;0.092;2023-03-08T08:18:57;15.50;13.00;8.00
76784;PMS7003;66893;44.316;0.092;2023-03-08T08:21:23;14.50;12.50;9.50
76784;PMS7003;66893;44.316;0.092;2023-03-08T08:23:49;14.75;13.50;10.50
76784;PMS7003;66893;44.316;0.092;2023-03-08T08:26:15;14.75;13.00;10.50
76784;PMS7003;66893;44.316;0.092;2023-03-08T08:28:43;18.00;16.00;13.00
76784;PMS7003;66893;44.316;0.092;2023-03-08T08:31:11;12.50;11.75;10.00
76784;PMS7003;66893;44.316;0.092;2023-03-08T08:33:39;10.25;10.25;8.50
76784;PMS7003;66893;44.316;0.092;2023-03-08T08:36:06;14.50;12.50;11.50
76784;PMS7003;66893;44.316;0.092;2023-03-08T08:38:34;13.00;13.00;10.00
76784;PMS7003;66893;44.316;0.092;2023-03-08T08:41:01;13.00;12.50;9.25
76784;PMS7003;66893;44.316;0.092;2023-03-08T08:43:31;17.75;14.75;10.25
76784;PMS7003;66893;44.316;0.092;2023-03-08T08:45:58;11.75;11.75;9.50
76784;PMS7003;66893;44.316;0.092;2023-03-08T08:48:25;12.75;11.75;9.00
76784;PMS7003;66893;44.316;0.092;2023-03-08T08:50:51;10.00;10.00;6.75
76784;PMS7003;66893;44.316;0.092;2023-03-08T08:53:18;10.50;10.00;8.00
76784;PMS7003;66893;44.316;0.092;2023-03-08T08:55:44;14.75;10.50;9.00
76784;PMS7003;66893;44.316;0.092;2023-03-08T08:58:10;13.25;11.50;9.25
76784;PMS7003;66893;44.316;0.092;2023-03-08T09:00:36;12.00;10.00;9.00
76784;PMS7003;66893;44.316;0.092;2023-03-08T09:03:02;9.50;9.50;7.50
76784;PMS7003;66893;44.316;0.092;2023-03-08T09:05:28;13.00;12.00;8.50
76784;PMS7003;66893;44.316;0.092;2023-03-08T09:07:54;7.50;7.50;5.75
76784;PMS7003;66893;44.316;0.092;2023-03-08T09:10:24;13.75;12.00;8.75
76784;PMS7003;66893;44.316;0.092;2023-03-08T09:12:51;10.75;10.75;8.00
76784;PMS7003;66893;44.316;0.092;2023-03-08T09:15:17;10.25;9.00;7.25
76784;PMS7003;66893;44.316;0.092;2023-03-08T09:17:43;9.00;9.00;6.75
76784;PMS7003;66893;44.316;0.092;2023-03-08T09:20:08;11.25;10.75;8.75
76784;PMS7003;66893;44.316;0.092;2023-03-08T09:22:35;11.25;9.25;7.25
76784;PMS7003;66893;44.316;0.092;2023-03-08T09:25:04;9.25;9.00;8.00
76784;PMS7003;66893;44.316;0.092;2023-03-08T09:27:31;10.00;8.00;7.00
76784;PMS7003;66893;44.316;0.092;2023-03-08T09:29:56;10.50;9.75;8.25
76784;PMS7003;66893;44.316;0.092;2023-03-08T09:32:22;8.00;7.25;7.00
76784;PMS7003;66893;44.316;0.092;2023-03-08T09:34:49;9.25;9.25;6.00
76784;PMS7003;66893;44.316;0.092;2023-03-08T09:37:15;9.00;7.00;6.00
76784;PMS7003;66893;44.316;0.092;2023-03-08T09:39:41;8.25;7.50;6.25
76784;PMS7003;66893;44.316;0.092;2023-03-08T09:42:14;10.50;8.75;7.25
76784;PMS7003;66893;44.316;0.092;2023-03-08T09:50:07;9.00;8.75;6.50
76784;PMS7003;66893;44.316;0.092;2023-03-08T09:52:37;10.75;7.75;6.25
76784;PMS7003;66893;44.316;0.092;2023-03-08T09:58:06;6.25;6.25;5.00
76784;PMS7003;66893;44.316;0.092;2023-03-08T10:00:43;9.75;8.50;7.00
76784;PMS7003;66893;44.316;0.092;2023-03-08T10:06:35;9.25;7.25;6.00
76784;PMS7003;66893;44.316;0.092;2023-03-08T10:09:30;8.50;8.50;7.00
76784;PMS7003;66893;44.316;0.092;2023-03-08T10:14:43;8.50;8.00;6.50
76784;PMS7003;66893;44.316;0.092;2023-03-08T10:17:19;8.00;8.00;6.00
76784;PMS7003;66893;44.316;0.092;2023-03-08T10:19:58;8.50;8.50;6.75
76784;PMS7003;66893;44.316;0.092;2023-03-08T10:22:31;8.75;7.50;6.75
76784;PMS7003;66893;44.316;0.092;2023-03-08T10:25:02;6.00;6.00;5.00
76784;PMS7003;66893;44.316;0.092;2023-03-08T10:27:41;7.00;7.00;6.00
76784;PMS7003;66893;44.316;0.092;2023-03-08T10:30:14;6.00;6.00;5.00
76784;PMS7003;66893;44.316;0.092;2023-03-08T10:32:42;8.50;7.00;6.00
76784;PMS7003;66893;44.316;0.092;2023-03-08T10:35:09;5.50;5.25;4.75
76784;PMS7003;66893;44.316;0.092;2023-03-08T10:37:34;6.00;5.50;4.50
76784;PMS7003;66893;44.316;0.092;2023-03-08T10:40:00;8.00;7.00;6.00
76784;PMS7003;66893;44.316;0.092;2023-03-08T10:42:30;7.25;7.00;6.00
76784;PMS7003;66893;44.316;0.092;2023-03-08T10:44:58;8.00;6.25;5.50
76784;PMS7003;66893;44.316;0.092;2023-03-08T10:52:33;6.50;6.50;5.00
76784;PMS7003;66893;44.316;0.092;2023-03-08T10:55:02;6.25;6.25;5.00
76784;PMS7003;66893;44.316;0.092;2023-03-08T10:57:35;5.00;3.25;3.25
76784;PMS7003;66893;44.316;0.092;2023-03-08T11:00:03;9.50;5.75;4.00
76784;PMS7003;66893;44.316;0.092;2023-03-08T11:02:48;6.50;5.75;5.00
76784;PMS7003;66893;44.316;0.092;2023-03-08T11:05:20;3.50;3.50;2.50
76784;PMS7003;66893;44.316;0.092;2023-03-08T11:07:53;2.50;2.50;2.25
76784;PMS7003;66893;44.316;0.092;2023-03-08T11:10:22;5.00;5.00;3.75
76784;PMS7003;66893;44.316;0.092;2023-03-08T11:12:59;11.75;9.50;7.50
76784;PMS7003;66893;44.316;0.092;2023-03-08T11:15:41;3.75;2.75;2.75
76784;PMS7003;66893;44.316;0.092;2023-03-08T11:30:13;2.25;2.25;2.00
76784;PMS7003;66893;44.316;0.092;2023-03-08T11:35:32;6.75;4.50;3.25
76784;PMS7003;66893;44.316;0.092;2023-03-08T11:38:17;3.50;2.75;2.00
76784;PMS7003;66893;44.316;0.092;2023-03-08T11:46:26;9.00;9.00;7.50
76784;PMS7003;66893;44.316;0.092;2023-03-08T11:54:15;2.50;2.50;2.00
76784;PMS7003;66893;44.316;0.092;2023-03-08T11:56:50;2.25;2.25;2.00
76784;PMS7003;66893;44.316;0.092;2023-03-08T12:02:14;1.00;1.00;1.00
76784;PMS7003;66893;44.316;0.092;2023-03-08T12:04:55;2.50;2.00;1.75
76784;PMS7003;66893;44.316;0.092;2023-03-08T12:07:38;2.75;1.75;1.00
76784;PMS7003;66893;44.316;0.092;2023-03-08T12:12:43;2.00;2.00;1.25
76784;PMS7003;66893;44.316;0.092;2023-03-08T12:15:34;1.25;0.50;0.50
76784;PMS7003;66893;44.316;0.092;2023-03-08T12:18:06;4.00;1.25;1.00
76784;PMS7003;66893;44.316;0.092;2023-03-08T12:20:40;1.50;1.00;1.00
76784;PMS7003;66893;44.316;0.092;2023-03-08T12:26:12;2.75;2.00;1.00
76784;PMS7003;66893;44.316;0.092;2023-03-08T12:28:52;1.25;1.25;1.00
76784;PMS7003;66893;44.316;0.092;2023-03-08T12:31:33;1.25;1.00;1.00
76784;PMS7003;66893;44.316;0.092;2023-03-08T12:34:10;1.00;1.00;1.00
76784;PMS7003;66893;44.316;0.092;2023-03-08T12:36:51;2.50;1.00;1.00
76784;PMS7003;66893;44.316;0.092;2023-03-08T12:39:25;1.50;1.00;1.00
76784;PMS7003;66893;44.316;0.092;2023-03-08T12:42:00;1.00;1.00;1.00
76784;PMS7003;66893;44.316;0.092;2023-03-08T12:44:26;2.00;1.00;0.00
76784;PMS7003;66893;44.316;0.092;2023-03-08T12:46:58;1.00;1.00;0.25
76784;PMS7003;66893;44.316;0.092;2023-03-08T12:49:39;1.00;1.00;1.00
76784;PMS7003;66893;44.316;0.092;2023-03-08T12:54:54;1.00;1.00;0.25
76784;PMS7003;66893;44.316;0.092;2023-03-08T12:57:23;1.00;1.00;1.00
76784;PMS7003;66893;44.316;0.092;2023-03-08T13:00:24;0.25;0.00;0.00
76784;PMS7003;66893;44.316;0.092;2023-03-08T13:05:49;1.00;0.00;0.00
76784;PMS7003;66893;44.316;0.092;2023-03-08T13:08:17;1.00;1.00;1.00
76784;PMS7003;66893;44.316;0.092;2023-03-08T13:11:09;1.00;1.00;1.00
76784;PMS7003;66893;44.316;0.092;2023-03-08T13:18:46;0.50;0.50;0.00
76784;PMS7003;66893;44.316;0.092;2023-03-08T13:21:25;1.50;0.00;0.00
76784;PMS7003;66893;44.316;0.092;2023-03-08T13:25:02;1.25;1.00;0.75
76784;PMS7003;66893;44.316;0.092;2023-03-08T13:29:37;1.00;1.00;1.00
76784;PMS7003;66893;44.316;0.092;2023-03-08T13:32:15;0.00;0.00;0.00
76784;PMS7003;66893;44.316;0.092;2023-03-08T13:34:43;2.00;1.50;1.00
76784;PMS7003;66893;44.316;0.092;2023-03-08T13:37:23;1.00;1.00;0.75
76784;PMS7003;66893;44.316;0.092;2023-03-08T13:39:52;1.25;1.00;1.00
76784;PMS7003;66893;44.316;0.092;2023-03-08T13:42:18;0.75;0.75;0.50
76784;PMS7003;66893;44.316;0.092;2023-03-08T13:44:49;1.00;1.00;1.00
76784;PMS7003;66893;44.316;0.092;2023-03-08T13:47:25;1.00;1.00;0.75
76784;PMS7003;66893;44.316;0.092;2023-03-08T13:49:55;0.75;0.75;0.50
76784;PMS7003;66893;44.316;0.092;2023-03-08T13:52:24;2.00;1.75;1.50
76784;PMS7003;66893;44.316;0.092;2023-03-08T13:54:55;1.00;1.00;0.75
76784;PMS7003;66893;44.316;0.092;2023-03-08T13:57:26;1.50;1.00;1.00
76784;PMS7003;66893;44.316;0.092;2023-03-08T13:59:55;1.75;1.75;1.00
76784;PMS7003;66893;44.316;0.092;2023-03-08T14:02:23;0.75;0.75;0.75
76784;PMS7003;66893;44.316;0.092;2023-03-08T14:04:54;0.75;0.75;0.75
76784;PMS7003;66893;44.316;0.092;2023-03-08T14:07:22;3.50;1.75;1.50
76784;PMS7003;66893;44.316;0.092;2023-03-08T14:09:52;1.75;1.75;1.75
76784;PMS7003;66893;44.316;0.092;2023-03-08T14:12:19;0.75;0.75;0.75
76784;PMS7003;66893;44.316;0.092;2023-03-08T14:14:50;1.50;1.50;0.75
76784;PMS7003;66893;44.316;0.092;2023-03-08T14:17:22;0.75;0.75;0.50
76784;PMS7003;66893;44.316;0.092;2023-03-08T14:20:01;2.50;1.75;1.75
76784;PMS7003;66893;44.316;0.092;2023-03-08T14:22:31;2.25;1.50;1.50
76784;PMS7003;66893;44.316;0.092;2023-03-08T14:25:01;2.00;1.75;1.75
76784;PMS7003;66893;44.316;0.092;2023-03-08T14:30:12;3.50;3.00;2.00
76784;PMS7003;66893;44.316;0.092;2023-03-08T14:32:57;4.75;3.00;2.00
76784;PMS7003;66893;44.316;0.092;2023-03-08T14:35:44;3.00;2.25;2.00
76784;PMS7003;66893;44.316;0.092;2023-03-08T14:38:29;3.50;3.50;3.00
76784;PMS7003;66893;44.316;0.092;2023-03-08T14:40:58;4.00;3.75;3.25
76784;PMS7003;66893;44.316;0.092;2023-03-08T14:43:30;6.50;6.50;4.00
76784;PMS7003;66893;44.316;0.092;2023-03-08T14:48:31;3.25;3.25;2.25
76784;PMS7003;66893;44.316;0.092;2023-03-08T14:51:01;8.00;8.00;6.25
76784;PMS7003;66893;44.316;0.092;2023-03-08T14:53:57;2.00;2.00;1.75
76784;PMS7003;66893;44.316;0.092;2023-03-08T14:56:26;3.75;3.00;3.00
76784;PMS7003;66893;44.316;0.092;2023-03-08T14:58:54;4.25;3.25;3.00
76784;PMS7003;66893;44.316;0.092;2023-03-08T15:01:33;3.00;3.00;3.00
76784;PMS7003;66893;44.316;0.092;2023-03-08T15:03:59;4.25;3.75;3.00
76784;PMS7003;66893;44.316;0.092;2023-03-08T15:06:27;4.00;4.00;3.25
76784;PMS7003;66893;44.316;0.092;2023-03-08T15:08:58;2.25;2.25;2.00
76784;PMS7003;66893;44.316;0.092;2023-03-08T15:11:26;2.50;2.00;2.00
76784;PMS7003;66893;44.316;0.092;2023-03-08T15:13:55;3.50;3.50;2.25
76784;PMS7003;66893;44.316;0.092;2023-03-08T15:16:22;2.00;2.00;2.00
76784;PMS7003;66893;44.316;0.092;2023-03-08T15:18:47;2.50;2.00;1.75
76784;PMS7003;66893;44.316;0.092;2023-03-08T15:21:13;3.00;2.25;2.00
76784;PMS7003;66893;44.316;0.092;2023-03-08T15:23:44;2.25;2.25;2.00
76784;PMS7003;66893;44.316;0.092;2023-03-08T15:26:15;2.00;2.00;2.00
76784;PMS7003;66893;44.316;0.092;2023-03-08T15:28:46;3.25;2.75;2.00
76784;PMS7003;66893;44.316;0.092;2023-03-08T15:31:11;2.00;2.00;2.00
76784;PMS7003;66893;44.316;0.092;2023-03-08T15:33:37;2.00;2.00;1.75
76784;PMS7003;66893;44.316;0.092;2023-03-08T15:36:02;3.00;2.75;2.00
76784;PMS7003;66893;44.316;0.092;2023-03-08T15:38:28;5.50;1.25;1.00